createdAt,value
2022-09-28T00:01:00.859Z,10.97
2022-09-28T00:03:28.905Z,11.63
2022-09-28T00:06:03.148Z,11.70
2022-09-28T00:08:30.971Z,11.20
2022-09-28T00:10:59.218Z,12.27
2022-09-28T00:13:29.365Z,11.87
2022-09-28T00:16:04.870Z,12.33
2022-09-28T00:18:33.136Z,12.53
2022-09-28T00:21:02.468Z,12.67
2022-09-28T00:23:30.222Z,13.27
2022-09-28T00:26:02.197Z,13.00
2022-09-28T00:28:32.065Z,12.80
2022-09-28T00:31:00.253Z,12.77
2022-09-28T00:33:29.334Z,12.77
2022-09-28T00:35:58.412Z,13.03
2022-09-28T00:38:28.359Z,13.10
2022-09-28T00:40:56.664Z,12.90
2022-09-28T00:43:25.325Z,12.87
2022-09-28T00:45:58.928Z,12.70
2022-09-28T00:48:30.425Z,13.47
2022-09-28T00:51:01.017Z,13.20
2022-09-28T00:53:32.643Z,14.07
2022-09-28T00:56:03.659Z,13.87
2022-09-28T00:58:34.926Z,12.50
2022-09-28T01:01:05.104Z,13.17
2022-09-28T01:03:34.473Z,13.30
2022-09-28T01:06:04.734Z,12.90
2022-09-28T01:08:35.143Z,12.50
2022-09-28T01:11:03.626Z,12.40
2022-09-28T01:13:33.496Z,12.50
2022-09-28T01:16:10.103Z,11.57
2022-09-28T01:18:43.776Z,11.73
2022-09-28T01:21:17.596Z,11.60
2022-09-28T01:24:09.516Z,12.07
2022-09-28T01:27:07.506Z,11.50
2022-09-28T01:29:44.799Z,11.80
2022-09-28T01:32:22.302Z,11.90
2022-09-28T01:34:56.869Z,11.23
2022-09-28T01:37:32.023Z,12.00
2022-09-28T01:40:03.229Z,12.00
2022-09-28T01:42:35.355Z,13.00
2022-09-28T01:45:10.364Z,12.93
2022-09-28T01:47:40.981Z,12.43
2022-09-28T01:50:13.983Z,11.70
2022-09-28T01:52:48.107Z,11.70
2022-09-28T01:55:21.855Z,11.67
2022-09-28T01:57:56.030Z,11.97
2022-09-28T02:00:27.454Z,11.50
2022-09-28T02:03:01.975Z,11.80
2022-09-28T02:05:40.841Z,11.90
2022-09-28T02:08:11.903Z,13.27
2022-09-28T02:10:44.481Z,12.57
2022-09-28T02:13:18.656Z,12.33
2022-09-28T02:15:52.488Z,12.83
2022-09-28T02:18:20.380Z,12.80
2022-09-28T02:20:53.889Z,13.27
2022-09-28T02:23:23.990Z,12.70
2022-09-28T02:25:56.696Z,12.70
2022-09-28T02:28:25.890Z,12.13
2022-09-28T02:30:53.847Z,13.23
2022-09-28T02:33:26.834Z,13.00
2022-09-28T02:35:55.088Z,13.20
2022-09-28T02:38:25.011Z,12.50
2022-09-28T02:41:03.746Z,12.90
2022-09-28T02:43:44.265Z,12.37
2022-09-28T02:46:21.694Z,12.33
2022-09-28T02:49:20.516Z,12.43
2022-09-28T02:52:01.793Z,12.40
2022-09-28T02:54:46.686Z,12.63
2022-09-28T02:57:28.526Z,12.80
2022-09-28T03:00:05.492Z,12.37
2022-09-28T03:02:39.572Z,11.93
2022-09-28T03:05:20.045Z,12.83
2022-09-28T03:07:57.988Z,11.90
2022-09-28T03:10:36.353Z,12.60
2022-09-28T03:13:04.880Z,12.90
2022-09-28T03:15:35.866Z,12.80
2022-09-28T03:18:04.193Z,12.90
2022-09-28T03:20:33.584Z,12.23
2022-09-28T03:25:50.207Z,12.87
2022-09-28T03:28:18.097Z,12.27
2022-09-28T03:30:47.199Z,12.30
2022-09-28T03:33:15.436Z,12.60
2022-09-28T03:35:43.310Z,12.60
2022-09-28T03:38:11.027Z,12.33
2022-09-28T03:40:39.934Z,12.07
2022-09-28T03:43:07.687Z,11.43
2022-09-28T03:45:35.644Z,13.80
2022-09-28T03:48:04.983Z,12.53
2022-09-28T03:50:34.908Z,12.17
2022-09-28T03:53:04.484Z,12.70
2022-09-28T03:55:32.220Z,11.90
2022-09-28T03:58:00.172Z,11.70
2022-09-28T04:00:28.048Z,12.43
2022-09-28T04:02:56.447Z,12.50
2022-09-28T04:05:25.546Z,12.27
2022-09-28T04:07:57.721Z,12.10
2022-09-28T04:10:25.709Z,11.53
2022-09-28T04:12:55.800Z,11.70
2022-09-28T04:15:23.739Z,11.63
2022-09-28T04:17:51.838Z,12.00
2022-09-28T04:20:59.169Z,12.03
2022-09-28T04:23:28.428Z,12.10
2022-09-28T04:25:56.211Z,11.90
2022-09-28T04:28:41.347Z,12.23
2022-09-28T04:31:11.876Z,12.13
2022-09-28T04:33:39.911Z,12.93
2022-09-28T04:36:10.873Z,13.00
2022-09-28T04:38:52.382Z,13.50
2022-09-28T04:41:22.729Z,14.03
2022-09-28T04:43:51.566Z,13.53
2022-09-28T04:46:19.745Z,14.67
2022-09-28T04:48:57.533Z,15.37
2022-09-28T04:51:45.372Z,18.07
2022-09-28T04:54:13.460Z,18.70
2022-09-28T04:56:42.238Z,17.90
2022-09-28T04:59:10.057Z,18.53
2022-09-28T05:01:38.566Z,19.47
2022-09-28T05:04:26.210Z,18.83
2022-09-28T05:07:13.902Z,18.70
2022-09-28T05:09:41.638Z,18.30
2022-09-28T05:12:10.232Z,18.03
2022-09-28T05:14:38.804Z,18.70
2022-09-28T05:17:06.735Z,17.47
2022-09-28T05:19:41.482Z,18.20
2022-09-28T05:22:14.593Z,17.80
2022-09-28T05:24:47.703Z,16.87
2022-09-28T05:27:15.938Z,16.23
2022-09-28T05:29:47.016Z,16.43
2022-09-28T05:32:41.714Z,16.90
2022-09-28T05:35:20.443Z,16.37
2022-09-28T05:37:49.352Z,16.23
2022-09-28T05:40:18.711Z,15.97
2022-09-28T05:42:46.480Z,16.43
2022-09-28T05:45:14.460Z,17.73
2022-09-28T05:47:46.038Z,17.47
2022-09-28T05:50:16.925Z,16.83
2022-09-28T05:52:45.006Z,16.50
2022-09-28T05:55:15.926Z,16.07
2022-09-28T05:57:45.714Z,15.57
2022-09-28T06:00:13.956Z,16.27
2022-09-28T06:02:46.197Z,16.10
2022-09-28T06:05:14.390Z,16.80
2022-09-28T06:07:42.695Z,16.60
2022-09-28T06:10:10.982Z,16.60
2022-09-28T06:12:43.074Z,16.87
2022-09-28T06:15:17.331Z,16.30
2022-09-28T06:17:46.377Z,17.37
2022-09-28T06:20:52.786Z,17.77
2022-09-28T06:23:30.964Z,15.83
2022-09-28T06:26:00.539Z,16.87
2022-09-28T06:28:28.423Z,16.80
2022-09-28T06:31:01.120Z,17.17
2022-09-28T06:33:30.156Z,17.90
2022-09-28T06:35:59.955Z,16.30
2022-09-28T06:38:27.822Z,17.03
2022-09-28T06:40:55.686Z,16.83
2022-09-28T06:43:23.684Z,18.90
2022-09-28T06:46:11.587Z,17.93
2022-09-28T06:48:51.452Z,18.47
2022-09-28T06:51:25.948Z,16.20
2022-09-28T06:54:08.228Z,18.60
2022-09-28T06:56:49.880Z,18.20
2022-09-28T06:59:20.186Z,17.10
2022-09-28T07:01:49.335Z,15.80
2022-09-28T07:04:46.018Z,15.63
2022-09-28T07:07:33.614Z,16.17
2022-09-28T07:10:16.928Z,16.27
2022-09-28T07:13:03.533Z,15.83
2022-09-28T07:15:45.694Z,15.60
2022-09-28T07:18:18.694Z,16.03
2022-09-28T07:20:53.712Z,15.13
2022-09-28T07:23:22.504Z,15.37
2022-09-28T07:26:22.696Z,14.80
2022-09-28T07:29:01.563Z,13.57
2022-09-28T07:31:42.677Z,13.50
2022-09-28T07:34:39.854Z,12.97
2022-09-28T07:37:13.642Z,12.70
2022-09-28T07:39:59.412Z,13.23
2022-09-28T07:42:29.933Z,12.83
2022-09-28T07:44:58.214Z,12.90
2022-09-28T07:47:32.243Z,12.50
2022-09-28T07:50:33.815Z,13.20
2022-09-28T07:53:10.546Z,13.13
2022-09-28T07:55:52.610Z,12.97
2022-09-28T07:58:38.045Z,13.40
2022-09-28T08:01:34.907Z,12.97
2022-09-28T08:04:03.106Z,12.97
2022-09-28T08:06:32.342Z,12.83
2022-09-28T08:09:01.666Z,13.07
2022-09-28T08:11:49.699Z,13.63
2022-09-28T08:14:35.960Z,12.53
2022-09-28T08:17:23.990Z,11.50
2022-09-28T08:20:13.812Z,12.93
2022-09-28T08:22:44.174Z,12.87
2022-09-28T08:25:12.577Z,12.90
2022-09-28T08:27:40.340Z,12.63
2022-09-28T08:30:09.640Z,13.07
2022-09-28T08:32:47.597Z,12.47
2022-09-28T08:35:38.907Z,12.63
2022-09-28T08:38:15.217Z,13.20
2022-09-28T08:41:19.650Z,12.90
2022-09-28T08:44:23.751Z,12.97
2022-09-28T08:47:32.129Z,13.30
2022-09-28T08:50:22.546Z,13.47
2022-09-28T08:53:13.568Z,14.20
2022-09-28T08:56:07.197Z,13.47
2022-09-28T08:58:41.794Z,12.33
2022-09-28T09:01:16.319Z,12.67
2022-09-28T09:03:46.319Z,11.90
2022-09-28T09:07:03.322Z,13.57
2022-09-28T09:09:48.302Z,13.70
2022-09-28T09:12:25.355Z,13.40
2022-09-28T09:15:15.338Z,12.17
2022-09-28T09:17:55.279Z,11.80
2022-09-28T09:20:41.998Z,12.57
2022-09-28T09:23:20.265Z,12.30
2022-09-28T09:25:51.283Z,12.53
2022-09-28T09:29:17.954Z,11.40
2022-09-28T09:32:08.072Z,12.77
2022-09-28T09:34:47.389Z,12.17
2022-09-28T09:38:00.169Z,12.43
2022-09-28T09:40:58.941Z,12.57
2022-09-28T09:44:26.677Z,12.40
2022-09-28T09:47:26.247Z,11.67
2022-09-28T09:50:05.472Z,11.87
2022-09-28T09:52:46.393Z,11.63
2022-09-28T09:55:19.421Z,12.67
2022-09-28T09:58:03.844Z,11.47
2022-09-28T10:00:38.927Z,12.30
2022-09-28T10:03:23.064Z,10.97
2022-09-28T10:05:57.166Z,11.40
2022-09-28T10:08:26.495Z,11.00
2022-09-28T10:11:05.628Z,11.37
2022-09-28T10:13:33.911Z,11.13
2022-09-28T10:16:06.782Z,11.90
2022-09-28T10:18:38.964Z,11.27
2022-09-28T10:21:25.614Z,11.07
2022-09-28T10:24:02.560Z,12.30
2022-09-28T10:26:36.048Z,12.63
2022-09-28T10:29:09.213Z,11.23
2022-09-28T10:31:41.938Z,11.03
2022-09-28T10:34:28.669Z,10.57
2022-09-28T10:37:00.581Z,11.57
2022-09-28T10:39:37.354Z,11.93
2022-09-28T10:42:10.306Z,12.30
2022-09-28T10:44:52.418Z,11.87
2022-09-28T10:47:32.615Z,12.27
2022-09-28T10:50:01.394Z,13.13
2022-09-28T10:52:39.694Z,11.07
2022-09-28T10:55:30.545Z,11.23
2022-09-28T10:57:58.618Z,11.60
2022-09-28T11:00:38.583Z,11.33
2022-09-28T11:03:24.836Z,11.47
2022-09-28T11:05:57.863Z,10.70
2022-09-28T11:08:30.430Z,10.43
2022-09-28T11:11:08.073Z,11.83
2022-09-28T11:13:44.684Z,10.77
2022-09-28T11:16:28.404Z,11.00
2022-09-28T11:18:59.490Z,10.47
2022-09-28T11:21:32.023Z,10.50
2022-09-28T11:24:08.736Z,11.10
2022-09-28T11:26:43.810Z,10.60
2022-09-28T11:29:22.297Z,9.77
2022-09-28T11:32:04.114Z,10.97
2022-09-28T11:34:57.887Z,9.97
2022-09-28T11:37:40.066Z,10.27
2022-09-28T11:40:20.083Z,10.20
2022-09-28T11:42:57.160Z,10.23
2022-09-28T11:45:39.097Z,9.87
2022-09-28T11:48:11.457Z,9.30
2022-09-28T11:50:50.440Z,8.03
2022-09-28T11:53:26.439Z,8.93
2022-09-28T11:56:10.442Z,8.20
2022-09-28T11:58:42.928Z,8.10
2022-09-28T12:01:25.033Z,7.53
2022-09-28T12:04:18.136Z,7.83
2022-09-28T12:06:51.748Z,8.40
2022-09-28T12:09:28.523Z,8.80
2022-09-28T12:12:07.386Z,7.63
2022-09-28T12:14:43.629Z,7.67
2022-09-28T12:17:21.565Z,7.70
2022-09-28T12:19:55.276Z,7.43
2022-09-28T12:22:32.409Z,7.80
2022-09-28T12:25:02.807Z,8.30
2022-09-28T12:27:38.010Z,8.20
2022-09-28T12:30:13.163Z,7.87
2022-09-28T12:32:45.937Z,8.47
2022-09-28T12:35:15.963Z,7.90
2022-09-28T12:38:01.753Z,8.07
2022-09-28T12:40:38.166Z,8.70
2022-09-28T12:43:23.289Z,7.70
2022-09-28T12:46:12.116Z,7.93
2022-09-28T12:49:47.353Z,7.47
2022-09-28T12:51:51.279Z,7.60
2022-09-28T12:54:38.721Z,7.63
2022-09-28T12:57:28.852Z,7.27
2022-09-28T13:00:04.412Z,7.80
2022-09-28T13:03:03.570Z,7.40
2022-09-28T13:05:46.528Z,8.03
2022-09-28T13:08:23.204Z,8.20
2022-09-28T13:11:07.874Z,7.73
2022-09-28T13:13:49.009Z,7.60
2022-09-28T13:16:23.626Z,7.77
2022-09-28T13:19:02.165Z,7.33
2022-09-28T13:21:37.634Z,7.13
2022-09-28T13:24:20.904Z,7.30
2022-09-28T13:26:59.455Z,7.23
2022-09-28T13:29:28.220Z,7.57
2022-09-28T13:31:59.172Z,7.87
2022-09-28T13:34:29.900Z,7.70
2022-09-28T13:37:23.967Z,8.03
2022-09-28T13:39:53.210Z,7.50
2022-09-28T13:42:52.067Z,7.23
2022-09-28T13:45:53.491Z,7.77
2022-09-28T13:48:23.822Z,6.73
2022-09-28T13:51:05.925Z,3.40
2022-09-28T13:53:48.218Z,3.20
2022-09-28T13:56:28.146Z,2.70
2022-09-28T13:59:02.877Z,2.87
2022-09-28T14:01:38.418Z,2.27
2022-09-28T14:04:19.461Z,2.50
2022-09-28T14:06:55.482Z,2.87
2022-09-28T14:09:42.554Z,2.90
2022-09-28T14:12:31.290Z,3.23
2022-09-28T14:15:00.957Z,3.10
2022-09-28T14:17:51.277Z,3.73
2022-09-28T14:20:23.600Z,3.47
2022-09-28T14:23:33.133Z,3.73
2022-09-28T14:26:21.325Z,3.90
2022-09-28T14:29:01.522Z,3.90
2022-09-28T14:31:31.431Z,4.10
2022-09-28T14:34:01.761Z,3.57
2022-09-28T14:36:52.897Z,4.70
2022-09-28T14:39:40.204Z,5.40
2022-09-28T14:42:18.395Z,5.20
2022-09-28T14:45:23.617Z,5.67
2022-09-28T14:48:18.959Z,4.87
2022-09-28T14:50:48.750Z,4.73
2022-09-28T14:53:24.830Z,5.30
2022-09-28T14:55:56.207Z,4.90
2022-09-28T14:58:26.638Z,5.10
2022-09-28T15:01:03.534Z,6.43
2022-09-28T15:03:36.440Z,6.50
2022-09-28T15:06:04.229Z,7.60
2022-09-28T15:08:39.809Z,8.73
2022-09-28T15:11:12.817Z,5.70
2022-09-28T15:13:41.540Z,5.23
2022-09-28T15:16:13.212Z,6.07
2022-09-28T15:19:00.947Z,5.63
2022-09-28T15:21:35.636Z,3.70
2022-09-28T15:24:03.455Z,3.80
2022-09-28T15:26:33.344Z,4.30
2022-09-28T15:29:04.057Z,4.00
2022-09-28T15:31:36.355Z,4.10
2022-09-28T15:34:23.197Z,3.70
2022-09-28T15:36:51.036Z,3.70
2022-09-28T15:39:22.966Z,3.73
2022-09-28T15:41:51.837Z,3.93
2022-09-28T15:44:32.334Z,11.90
2022-09-28T15:47:13.481Z,3.10
2022-09-28T15:49:47.285Z,2.60
2022-09-28T15:52:29.319Z,2.23
2022-09-28T15:54:58.907Z,2.50
2022-09-28T15:57:33.762Z,2.47
2022-09-28T16:00:02.113Z,2.50
2022-09-28T16:02:39.642Z,2.50
2022-09-28T16:05:34.033Z,2.10
2022-09-28T16:08:03.902Z,1.93
2022-09-28T16:10:34.515Z,2.10
2022-09-28T16:13:15.549Z,2.50
2022-09-28T16:15:43.778Z,2.23
2022-09-28T16:18:23.441Z,2.23
2022-09-28T16:20:54.559Z,2.70
2022-09-28T16:23:25.729Z,2.67
2022-09-28T16:25:58.649Z,2.90
2022-09-28T16:28:51.574Z,3.00
2022-09-28T16:31:28.166Z,2.70
2022-09-28T16:33:58.087Z,3.00
2022-09-28T16:36:30.145Z,3.00
2022-09-28T16:38:57.933Z,2.80
2022-09-28T16:41:28.784Z,3.03
2022-09-28T16:44:00.943Z,3.73
2022-09-28T16:46:34.141Z,3.60
2022-09-28T16:49:02.936Z,3.73
2022-09-28T16:51:32.434Z,5.37
2022-09-28T16:54:29.016Z,6.23
2022-09-28T16:56:56.760Z,7.70
2022-09-28T16:59:24.451Z,7.40
2022-09-28T17:01:52.259Z,6.93
2022-09-28T17:04:19.950Z,7.57
2022-09-28T17:06:49.040Z,7.40
2022-09-28T17:09:16.870Z,6.67
2022-09-28T17:11:44.612Z,7.53
2022-09-28T17:14:12.342Z,6.93
2022-09-28T17:17:06.695Z,6.13
2022-09-28T17:19:30.797Z,4.40
2022-09-28T17:21:59.842Z,4.30
2022-09-28T17:24:27.626Z,3.80
2022-09-28T17:26:56.059Z,3.53
2022-09-28T17:29:23.905Z,3.50
2022-09-28T17:31:52.006Z,3.63
2022-09-28T17:34:20.593Z,3.83
2022-09-28T17:36:48.752Z,3.70
2022-09-28T17:39:19.933Z,3.60
2022-09-28T17:41:47.798Z,3.53
2022-09-28T17:44:15.783Z,3.20
2022-09-28T17:46:47.318Z,3.03
2022-09-28T17:49:15.820Z,2.97
2022-09-28T17:51:43.555Z,3.60
2022-09-28T17:54:12.855Z,3.03
2022-09-28T17:56:42.513Z,3.00
2022-09-28T17:59:14.247Z,3.10
2022-09-28T18:01:42.094Z,3.30
2022-09-28T18:04:33.243Z,3.70
2022-09-28T18:07:01.336Z,4.17
2022-09-28T18:09:29.197Z,4.60
2022-09-28T18:12:01.520Z,4.87
2022-09-28T18:14:30.011Z,4.93
2022-09-28T18:16:57.981Z,5.10
2022-09-28T18:19:31.741Z,4.63
2022-09-28T18:22:01.134Z,5.47
2022-09-28T18:24:29.044Z,5.83
2022-09-28T18:26:57.159Z,5.77
2022-09-28T18:29:29.895Z,5.90
2022-09-28T18:32:00.182Z,6.17
2022-09-28T18:34:27.946Z,5.67
2022-09-28T18:36:55.741Z,5.83
2022-09-28T18:39:24.214Z,6.50
2022-09-28T18:41:52.017Z,8.80
2022-09-28T18:44:19.897Z,9.30
2022-09-28T18:46:49.312Z,13.73
2022-09-28T18:49:17.242Z,13.10
2022-09-28T18:51:45.125Z,9.63
2022-09-28T18:54:12.919Z,7.50
2022-09-28T18:56:40.967Z,6.10
2022-09-28T18:59:12.189Z,6.40
2022-09-28T19:01:41.483Z,6.47
2022-09-28T19:04:13.467Z,6.37
2022-09-28T19:06:44.295Z,5.70
2022-09-28T19:09:13.008Z,6.17
2022-09-28T19:11:40.876Z,6.47
2022-09-28T19:14:11.065Z,5.93
2022-09-28T19:16:38.904Z,5.67
2022-09-28T19:19:06.814Z,5.00
2022-09-28T19:21:36.176Z,4.90
2022-09-28T19:24:04.553Z,5.47
2022-09-28T19:26:33.416Z,5.00
2022-09-28T19:29:02.631Z,5.10
2022-09-28T19:31:31.242Z,5.07
2022-09-28T19:33:59.330Z,4.77
2022-09-28T19:36:29.059Z,4.80
2022-09-28T19:39:02.714Z,4.70
2022-09-28T19:41:44.195Z,4.93
2022-09-28T19:44:20.996Z,4.53
2022-09-28T19:46:48.845Z,4.63
2022-09-28T19:49:19.287Z,5.23
2022-09-28T19:52:10.864Z,5.33
2022-09-28T19:54:38.256Z,5.43
2022-09-28T19:57:07.580Z,5.27
2022-09-28T19:59:36.456Z,5.13
2022-09-28T20:02:04.960Z,5.93
2022-09-28T20:04:32.783Z,6.00
2022-09-28T20:07:01.605Z,6.20
2022-09-28T20:09:29.461Z,6.50
2022-09-28T20:11:58.603Z,6.63
2022-09-28T20:14:32.135Z,6.77
2022-09-28T20:17:02.058Z,6.73
2022-09-28T20:19:29.814Z,5.33
2022-09-28T20:21:59.376Z,7.13
2022-09-28T20:24:28.799Z,7.80
2022-09-28T20:26:58.020Z,7.87
2022-09-28T20:29:26.584Z,8.00
2022-09-28T20:31:54.380Z,8.20
2022-09-28T20:34:22.178Z,8.73
2022-09-28T20:36:49.950Z,9.00
2022-09-28T20:39:18.195Z,9.17
2022-09-28T20:41:47.087Z,8.93
2022-09-28T20:44:16.649Z,9.73
2022-09-28T20:46:44.728Z,9.57
2022-09-28T20:49:12.560Z,9.67
2022-09-28T20:51:40.398Z,9.83
2022-09-28T20:54:08.646Z,9.77
2022-09-28T20:56:38.169Z,9.93
2022-09-28T20:59:07.711Z,10.30
2022-09-28T21:01:36.943Z,10.30
2022-09-28T21:04:06.935Z,10.50
2022-09-28T21:06:36.392Z,11.33
2022-09-28T21:09:05.962Z,10.77
2022-09-28T21:11:35.365Z,11.53
2022-09-28T21:14:06.140Z,11.97
2022-09-28T21:16:36.191Z,12.20
2022-09-28T21:19:04.740Z,11.77
2022-09-28T21:21:33.013Z,11.83
2022-09-28T21:24:00.916Z,12.63
2022-09-28T21:26:31.074Z,12.37
2022-09-28T21:29:00.950Z,12.00
2022-09-28T21:31:32.341Z,11.53
2022-09-28T21:34:01.769Z,10.93
2022-09-28T21:36:29.601Z,11.23
2022-09-28T21:38:57.735Z,10.83
2022-09-28T21:41:26.244Z,11.90
2022-09-28T21:43:54.103Z,11.03
2022-09-28T21:46:22.039Z,11.27
2022-09-28T21:48:53.502Z,11.67
2022-09-28T21:51:22.711Z,11.33
2022-09-28T21:53:50.665Z,11.73
2022-09-28T21:56:18.934Z,11.70
2022-09-28T21:58:47.770Z,11.77
2022-09-28T22:01:19.537Z,11.87
2022-09-28T22:03:50.422Z,11.97
2022-09-28T22:06:20.060Z,11.60
2022-09-28T22:08:50.272Z,11.17
2022-09-28T22:11:20.685Z,11.50
2022-09-28T22:13:50.227Z,11.50
2022-09-28T22:16:20.158Z,12.13
2022-09-28T22:18:48.594Z,12.20
2022-09-28T22:21:18.962Z,11.57
2022-09-28T22:23:47.124Z,10.77
2022-09-28T22:26:18.936Z,11.37
2022-09-28T22:28:47.903Z,11.20
2022-09-28T22:31:16.323Z,11.17
2022-09-28T22:33:44.324Z,11.80
2022-09-28T22:36:12.446Z,12.40
2022-09-28T22:38:40.278Z,12.13
2022-09-28T22:41:08.257Z,12.43
2022-09-28T22:43:37.864Z,11.83
2022-09-28T22:46:07.120Z,12.23
2022-09-28T22:48:35.647Z,11.70
2022-09-28T22:51:05.225Z,12.47
2022-09-28T22:53:33.623Z,12.20
2022-09-28T22:56:04.896Z,12.33
2022-09-28T22:58:33.136Z,12.67
2022-09-28T23:01:08.545Z,11.80
2022-09-28T23:03:36.856Z,12.43
2022-09-28T23:06:04.847Z,12.30
2022-09-28T23:08:32.926Z,11.57
2022-09-28T23:11:00.974Z,11.97
2022-09-28T23:13:30.906Z,11.90
2022-09-28T23:16:00.264Z,12.40
2022-09-28T23:18:31.503Z,12.57
2022-09-28T23:21:00.758Z,12.33
2022-09-28T23:23:29.206Z,11.77
2022-09-28T23:25:57.562Z,11.93
2022-09-28T23:28:26.868Z,12.37
2022-09-28T23:30:55.217Z,12.93
2022-09-28T23:33:23.112Z,13.20
2022-09-28T23:35:52.311Z,11.80
2022-09-28T23:38:20.089Z,12.57
2022-09-28T23:40:48.571Z,12.00
2022-09-28T23:43:16.430Z,12.40
2022-09-28T23:45:44.398Z,12.03
2022-09-28T23:48:12.686Z,12.73
2022-09-28T23:50:40.513Z,12.83
2022-09-28T23:53:09.642Z,13.40
2022-09-28T23:55:37.509Z,12.43
2022-09-28T23:58:05.323Z,12.37
